Time;durP1;ratioP1;P1;durP2;ratioP2;P2;SDS_P1;SDS_P2;PMS_P1;PMS_P2;Temp;Humidity;BMP_temperature;BMP_pressure;BME280_temperature;BME280_humidity;BME280_pressure;Samples;Min_cycle;Max_cycle;Signal;HPM_P1;HPM_P2
2023/06/23 00:01:46;;;;;;;;;;;;;;;27.47;58.25;100226.41;5407962;32;34292;-80
2023/06/23 00:04:48;;;;;;;;;;;;;;;28.17;56.11;100211.28;5403716;32;34838;-81
2023/06/23 00:07:50;;;;;;;;;;;;;;;28.15;56.09;100210.63;5405484;32;35345;-81
2023/06/23 00:10:52;;;;;;;;;;;;;;;28.22;55.34;100203.50;5408928;32;34238;-70
2023/06/23 00:13:54;;;;;;;;;;;;;;;27.22;58.68;100214.81;5404947;32;34172;-81
2023/06/23 00:16:57;;;;;;;;;;;;;;;27.74;57.38;100216.22;5408993;32;35527;-71
2023/06/23 00:19:58;;;;;;;;;;;;;;;27.33;58.63;100220.88;5402735;32;34249;-71
2023/06/23 00:23:01;;;;;;;;;;;;;;;28.01;56.40;100215.72;5405347;32;34341;-81
2023/06/23 00:26:04;;;;;;;;;;;;;;;27.79;56.84;100216.53;5378947;32;37412;-71
2023/06/23 00:29:06;;;;;;;;;;;;;;;27.98;56.01;100202.59;5404450;32;35037;-81
2023/06/23 00:32:08;;;;;;;;;;;;;;;27.33;58.28;100219.03;5407687;32;34156;-71
2023/06/23 00:35:13;;;;;;;;;;;;;;;27.83;56.43;100219.75;5405628;32;34175;-71
2023/06/23 00:38:15;;;;;;;;;;;;;;;27.56;57.60;100221.81;5406109;32;34519;-72
2023/06/23 00:41:17;;;;;;;;;;;;;;;28.20;55.33;100221.72;5404211;32;34252;-71
2023/06/23 00:44:19;;;;;;;;;;;;;;;27.73;56.83;100236.13;5405629;32;34822;-80
2023/06/23 00:47:21;;;;;;;;;;;;;;;27.85;56.52;100231.19;5403036;32;34121;-71
2023/06/23 00:50:24;;;;;;;;;;;;;;;28.11;55.53;100220.09;5405624;32;34150;-81
2023/06/23 00:53:26;;;;;;;;;;;;;;;28.42;54.36;100214.69;5405258;32;34046;-81
2023/06/23 00:56:30;;;;;;;;;;;;;;;28.71;53.28;100197.72;5392435;32;34959;-70
2023/06/23 00:59:32;;;;;;;;;;;;;;;28.28;54.54;100194.66;5407390;32;35401;-71
2023/06/23 01:02:34;;;;;;;;;;;;;;;27.50;56.99;100200.91;5405062;32;34112;-71
2023/06/23 01:05:36;;;;;;;;;;;;;;;26.87;59.18;100204.41;5394183;32;34347;-81
2023/06/23 01:08:45;;;;;;;;;;;;;;;27.85;56.07;100196.09;5403187;32;34182;-80
2023/06/23 01:11:50;;;;;;;;;;;;;;;27.39;57.13;100199.44;5390764;32;34250;-70
2023/06/23 01:15:04;;;;;;;;;;;;;;;27.75;56.17;100193.59;5405756;32;34826;-70
2023/06/23 01:18:13;;;;;;;;;;;;;;;27.87;55.74;100199.44;5403324;32;34396;-80
2023/06/23 01:21:16;;;;;;;;;;;;;;;27.74;55.86;100192.75;5407936;32;34522;-70
2023/06/23 01:24:21;;;;;;;;;;;;;;;27.92;55.37;100197.06;5389401;32;35817;-71
2023/06/23 01:27:39;;;;;;;;;;;;;;;27.85;55.73;100201.50;5404659;32;36389;-81
2023/06/23 01:30:41;;;;;;;;;;;;;;;28.03;54.84;100177.75;5408215;32;34305;-81
2023/06/23 01:33:48;;;;;;;;;;;;;;;27.34;57.09;100182.91;5402862;32;35051;-81
2023/06/23 01:36:55;;;;;;;;;;;;;;;26.80;58.96;100182.66;5409132;32;34326;-71
2023/06/23 01:39:57;;;;;;;;;;;;;;;28.02;55.06;100165.28;5403156;32;34146;-72
2023/06/23 01:42:59;;;;;;;;;;;;;;;27.75;55.81;100166.59;5400941;32;34272;-82
2023/06/23 01:46:04;;;;;;;;;;;;;;;27.82;55.53;100178.38;5400439;32;34253;-70
2023/06/23 01:49:10;;;;;;;;;;;;;;;27.69;55.84;100170.84;5390549;32;34360;-71
2023/06/23 01:52:12;;;;;;;;;;;;;;;26.68;59.06;100192.09;5408031;32;34367;-71
2023/06/23 01:55:14;;;;;;;;;;;;;;;26.71;59.18;100189.06;5396872;32;34230;-81
2023/06/23 01:58:16;;;;;;;;;;;;;;;27.62;56.26;100206.78;5406596;32;34212;-71
2023/06/23 02:01:19;;;;;;;;;;;;;;;27.61;56.01;100215.91;5403986;32;34290;-82
2023/06/23 02:04:21;;;;;;;;;;;;;;;27.36;56.53;100229.47;5402635;32;34566;-81
2023/06/23 02:07:24;;;;;;;;;;;;;;;26.66;59.31;100215.66;5379328;32;33869;-81
2023/06/23 02:10:27;;;;;;;;;;;;;;;27.66;55.80;100205.41;5400425;32;35502;-81
2023/06/23 02:13:29;;;;;;;;;;;;;;;27.11;57.23;100208.94;5404919;32;34331;-71
2023/06/23 02:16:31;;;;;;;;;;;;;;;26.22;60.40;100213.25;5389712;32;35633;-81
2023/06/23 02:19:34;;;;;;;;;;;;;;;27.16;57.93;100223.59;5377261;32;34470;-81
2023/06/23 02:22:36;;;;;;;;;;;;;;;26.92;58.14;100227.16;5399661;32;34447;-81
2023/06/23 02:25:39;;;;;;;;;;;;;;;27.06;58.04;100217.56;5402189;32;34649;-71
2023/06/23 02:28:41;;;;;;;;;;;;;;;27.56;56.33;100216.41;5400328;32;34236;-79
2023/06/23 02:31:43;;;;;;;;;;;;;;;27.89;54.94;100214.47;5401750;32;34441;-71
2023/06/23 02:34:46;;;;;;;;;;;;;;;27.84;54.57;100208.75;5409225;32;35792;-71
2023/06/23 02:37:50;;;;;;;;;;;;;;;27.63;55.34;100197.66;5407320;32;37506;-80
2023/06/23 02:40:52;;;;;;;;;;;;;;;28.10;53.88;100207.63;5394898;32;34131;-81
2023/06/23 02:43:55;;;;;;;;;;;;;;;27.96;54.00;100203.81;5377034;32;35744;-81
2023/06/23 02:46:57;;;;;;;;;;;;;;;27.67;55.17;100204.41;5379124;32;35415;-83
2023/06/23 02:50:00;;;;;;;;;;;;;;;27.18;56.86;100207.25;5408613;32;34773;-82
2023/06/23 02:53:06;;;;;;;;;;;;;;;27.03;57.75;100209.75;5391777;32;35367;-71
2023/06/23 02:56:12;;;;;;;;;;;;;;;26.83;59.16;100203.88;5407638;32;35874;-70
2023/06/23 02:59:16;;;;;;;;;;;;;;;27.41;56.45;100194.69;5404786;32;35252;-71
2023/06/23 03:02:17;;;;;;;;;;;;;;;27.06;57.82;100198.69;5387857;32;35545;-71
2023/06/23 03:05:21;;;;;;;;;;;;;;;26.70;59.75;100198.16;5403980;32;35489;-82
2023/06/23 03:08:24;;;;;;;;;;;;;;;26.40;60.95;100197.78;5383358;32;34274;-81
2023/06/23 03:11:26;;;;;;;;;;;;;;;26.59;60.25;100193.09;5372631;32;35522;-72
2023/06/23 03:14:28;;;;;;;;;;;;;;;26.55;60.41;100202.53;5394260;32;35441;-72
2023/06/23 03:17:31;;;;;;;;;;;;;;;26.79;59.85;100201.69;5402472;32;34511;-71
2023/06/23 03:20:33;;;;;;;;;;;;;;;26.70;59.84;100209.78;5399376;32;35274;-82
2023/06/23 03:23:37;;;;;;;;;;;;;;;26.89;58.99;100208.59;5398945;32;33755;-80
2023/06/23 03:26:40;;;;;;;;;;;;;;;26.66;59.75;100205.75;5385726;32;34442;-73
2023/06/23 03:29:44;;;;;;;;;;;;;;;26.79;59.12;100221.41;5387426;32;35226;-71
2023/06/23 03:32:50;;;;;;;;;;;;;;;26.74;59.85;100223.78;5402579;32;35499;-72
2023/06/23 03:35:52;;;;;;;;;;;;;;;26.80;60.07;100224.97;5387577;32;34409;-71
2023/06/23 03:38:58;;;;;;;;;;;;;;;27.38;57.92;100230.16;5407351;32;34950;-71
2023/06/23 03:42:00;;;;;;;;;;;;;;;26.61;60.21;100239.59;5386436;32;34187;-82
2023/06/23 03:45:02;;;;;;;;;;;;;;;26.57;60.40;100249.03;5403672;32;34708;-71
2023/06/23 03:48:06;;;;;;;;;;;;;;;26.60;59.96;100243.28;5406176;32;33452;-71
2023/06/23 03:51:08;;;;;;;;;;;;;;;26.58;59.80;100237.22;5403040;32;34079;-80
2023/06/23 03:54:12;;;;;;;;;;;;;;;27.12;57.90;100233.06;5408512;32;34188;-81
2023/06/23 03:57:16;;;;;;;;;;;;;;;26.50;60.26;100227.28;5402833;32;34714;-72
2023/06/23 04:00:18;;;;;;;;;;;;;;;26.58;60.02;100230.00;5395401;32;35806;-82
2023/06/23 04:03:20;;;;;;;;;;;;;;;27.39;57.59;100234.53;5403503;32;34970;-82
2023/06/23 04:06:22;;;;;;;;;;;;;;;27.39;57.33;100249.88;5379656;32;34249;-83
2023/06/23 04:09:24;;;;;;;;;;;;;;;27.41;57.20;100248.69;5409241;32;34177;-71
2023/06/23 04:12:26;;;;;;;;;;;;;;;28.16;54.98;100245.56;5379260;32;34246;-71
2023/06/23 04:15:28;;;;;;;;;;;;;;;28.25;54.57;100255.28;5409777;32;34305;-82
2023/06/23 04:18:32;;;;;;;;;;;;;;;26.94;58.08;100251.25;5390236;32;34250;-81
2023/06/23 04:21:34;;;;;;;;;;;;;;;27.22;57.18;100243.66;5408120;32;34387;-81
2023/06/23 04:24:37;;;;;;;;;;;;;;;27.87;55.29;100240.78;5404263;32;34471;-73
2023/06/23 04:27:39;;;;;;;;;;;;;;;27.17;57.06;100240.63;5403714;32;35372;-72
2023/06/23 04:30:41;;;;;;;;;;;;;;;27.31;56.64;100247.16;5394637;32;35432;-82
2023/06/23 04:33:43;;;;;;;;;;;;;;;27.45;56.37;100241.94;5401343;32;34789;-81
2023/06/23 04:36:54;;;;;;;;;;;;;;;27.11;57.04;100241.31;5409362;32;35775;-72
2023/06/23 04:39:58;;;;;;;;;;;;;;;27.99;53.75;100243.97;5401486;32;34167;-81
2023/06/23 04:43:09;;;;;;;;;;;;;;;28.21;53.43;100247.72;5404974;32;34421;-72
2023/06/23 04:46:14;;;;;;;;;;;;;;;28.54;52.06;100241.13;5403640;32;33834;-73
2023/06/23 04:49:16;;;;;;;;;;;;;;;29.16;50.25;100234.72;5393853;32;34373;-82
2023/06/23 04:52:18;;;;;;;;;;;;;;;29.27;49.71;100228.03;5395825;32;34287;-79
2023/06/23 04:55:20;;;;;;;;;;;;;;;29.52;48.78;100228.62;5405095;32;35364;-80
2023/06/23 04:58:23;;;;;;;;;;;;;;;29.75;48.22;100226.63;5407198;32;34247;-81
2023/06/23 05:01:25;;;;;;;;;;;;;;;29.04;49.48;100226.19;5403624;32;34297;-82
2023/06/23 05:04:27;;;;;;;;;;;;;;;30.11;47.21;100218.59;5404362;32;33577;-72
2023/06/23 05:07:29;;;;;;;;;;;;;;;30.10;47.29;100222.34;5408259;32;35572;-74
2023/06/23 05:10:31;;;;;;;;;;;;;;;30.81;45.21;100202.63;5392838;32;34249;-72
2023/06/23 05:13:34;;;;;;;;;;;;;;;31.04;44.45;100203.22;5409927;32;34240;-81
2023/06/23 05:16:36;;;;;;;;;;;;;;;31.16;43.86;100217.09;5406886;32;34211;-82
2023/06/23 05:19:39;;;;;;;;;;;;;;;31.07;44.34;100215.56;5397231;32;34225;-82
2023/06/23 05:22:41;;;;;;;;;;;;;;;30.90;44.83;100209.59;5406247;32;34319;-72
2023/06/23 05:25:44;;;;;;;;;;;;;;;30.18;46.44;100227.63;5406560;32;34155;-81
2023/06/23 05:28:47;;;;;;;;;;;;;;;31.42;43.76;100221.88;5406138;32;34204;-81
2023/06/23 05:31:49;;;;;;;;;;;;;;;31.69;43.20;100218.31;5406527;32;34594;-82
2023/06/23 05:34:51;;;;;;;;;;;;;;;32.05;42.00;100219.94;5411512;32;35410;-81
2023/06/23 05:37:54;;;;;;;;;;;;;;;32.06;42.02;100229.75;5406221;32;34386;-72
2023/06/23 05:40:56;;;;;;;;;;;;;;;32.69;40.57;100224.91;5410144;32;34420;-82
2023/06/23 05:43:58;;;;;;;;;;;;;;;31.82;42.75;100223.00;5403661;32;35239;-72
2023/06/23 05:47:00;;;;;;;;;;;;;;;32.94;39.89;100217.00;5408440;32;34126;-82
2023/06/23 05:50:03;;;;;;;;;;;;;;;33.29;39.24;100220.31;5411494;32;35436;-82
2023/06/23 05:53:09;;;;;;;;;;;;;;;32.25;41.78;100215.38;5406959;32;34289;-72
2023/06/23 05:56:14;;;;;;;;;;;;;;;31.83;43.13;100221.13;5411655;32;34268;-71
2023/06/23 05:59:20;;;;;;;;;;;;;;;31.94;42.06;100218.62;5396713;32;35781;-72
2023/06/23 06:02:22;;;;;;;;;;;;;;;32.66;40.89;100219.06;5412785;32;36597;-81
2023/06/23 06:05:24;;;;;;;;;;;;;;;32.71;40.98;100211.09;5409067;32;34223;-80
2023/06/23 06:08:26;;;;;;;;;;;;;;;33.60;39.02;100205.19;5410874;32;34269;-73
2023/06/23 06:11:28;;;;;;;;;;;;;;;32.27;41.81;100194.28;5389711;32;34230;-72
2023/06/23 06:14:33;;;;;;;;;;;;;;;31.97;42.57;100192.94;5411994;32;34202;-83
2023/06/23 06:17:35;;;;;;;;;;;;;;;34.17;37.67;100187.97;5413973;32;36092;-71
2023/06/23 06:20:37;;;;;;;;;;;;;;;32.57;41.19;100193.94;5412630;32;35570;-71
2023/06/23 06:23:39;;;;;;;;;;;;;;;33.33;39.81;100188.88;5399347;32;34184;-71
2023/06/23 06:26:43;;;;;;;;;;;;;;;34.34;37.51;100168.34;5413534;32;35481;-72
2023/06/23 06:29:45;;;;;;;;;;;;;;;34.32;37.64;100167.72;5414448;32;34343;-72
2023/06/23 06:32:47;;;;;;;;;;;;;;;34.49;37.02;100166.16;5415620;32;35481;-81
2023/06/23 06:35:51;;;;;;;;;;;;;;;33.92;38.60;100165.25;5412386;32;35027;-72
2023/06/23 06:38:53;;;;;;;;;;;;;;;33.23;39.99;100172.13;5414716;32;34294;-73
2023/06/23 06:41:58;;;;;;;;;;;;;;;34.93;36.67;100162.47;5413627;32;34474;-83
2023/06/23 06:45:00;;;;;;;;;;;;;;;35.53;35.49;100159.13;5388278;32;34370;-81
2023/06/23 06:48:03;;;;;;;;;;;;;;;35.78;34.84;100168.03;5414243;32;34351;-82
2023/06/23 06:51:05;;;;;;;;;;;;;;;35.06;36.13;100160.66;5398271;32;34110;-82
2023/06/23 06:54:07;;;;;;;;;;;;;;;35.91;34.63;100160.75;5412050;32;33450;-80
2023/06/23 06:57:09;;;;;;;;;;;;;;;35.40;35.76;100151.88;5411945;32;35963;-72
2023/06/23 07:00:11;;;;;;;;;;;;;;;35.94;34.83;100152.09;5402153;32;34182;-72
2023/06/23 07:03:13;;;;;;;;;;;;;;;34.52;37.80;100149.34;5409764;32;34160;-81
2023/06/23 07:06:16;;;;;;;;;;;;;;;36.04;34.92;100145.00;5411605;32;37380;-82
2023/06/23 07:09:18;;;;;;;;;;;;;;;35.12;36.25;100152.41;5412943;32;35416;-74
2023/06/23 07:12:20;;;;;;;;;;;;;;;34.21;38.25;100151.03;5397421;32;35145;-72
2023/06/23 07:15:24;;;;;;;;;;;;;;;35.65;35.84;100142.78;5399217;32;34956;-73
2023/06/23 07:18:26;;;;;;;;;;;;;;;36.73;33.88;100150.06;5410607;32;35522;-72
2023/06/23 07:21:28;;;;;;;;;;;;;;;35.87;35.45;100149.41;5419202;32;34414;-74
2023/06/23 07:24:30;;;;;;;;;;;;;;;37.21;33.20;100144.34;5412585;32;34214;-73
2023/06/23 07:27:32;;;;;;;;;;;;;;;36.17;34.92;100146.72;5415187;32;34253;-82
2023/06/23 07:30:35;;;;;;;;;;;;;;;36.57;34.11;100149.66;5413075;32;35762;-73
2023/06/23 07:33:39;;;;;;;;;;;;;;;36.78;33.97;100147.44;5409078;32;34395;-73
2023/06/23 07:36:41;;;;;;;;;;;;;;;38.77;30.57;100133.09;5416383;32;35840;-83
2023/06/23 07:39:43;;;;;;;;;;;;;;;37.94;32.02;100138.25;5400447;32;35453;-73
2023/06/23 07:42:45;;;;;;;;;;;;;;;38.25;31.25;100146.16;5410258;32;34086;-73
2023/06/23 07:45:47;;;;;;;;;;;;;;;37.84;31.94;100139.94;5409948;32;34254;-83
2023/06/23 07:48:49;;;;;;;;;;;;;;;36.81;34.49;100149.69;5388235;32;36595;-83
2023/06/23 07:51:51;;;;;;;;;;;;;;;36.43;34.68;100142.75;5403382;32;35566;-73
2023/06/23 07:54:54;;;;;;;;;;;;;;;38.96;30.37;100130.88;5411322;32;35199;-73
2023/06/23 07:57:55;;;;;;;;;;;;;;;38.63;30.98;100140.81;5416673;32;34411;-72
2023/06/23 08:00:57;;;;;;;;;;;;;;;39.16;30.27;100136.72;5412775;32;34300;-74
2023/06/23 08:04:00;;;;;;;;;;;;;;;37.78;31.81;100132.66;5415314;32;34085;-82
2023/06/23 08:07:02;;;;;;;;;;;;;;;36.40;34.28;100135.03;5410615;32;35994;-83
2023/06/23 08:10:04;;;;;;;;;;;;;;;37.60;32.19;100145.47;5410905;32;34026;-71
2023/06/23 08:13:06;;;;;;;;;;;;;;;36.30;34.84;100129.25;5410871;32;34631;-79
2023/06/23 08:16:09;;;;;;;;;;;;;;;36.99;33.87;100138.66;5408011;32;34502;-71
2023/06/23 08:19:12;;;;;;;;;;;;;;;38.33;31.65;100126.59;5415464;32;34167;-79
2023/06/23 08:22:14;;;;;;;;;;;;;;;39.35;30.29;100128.16;5412206;32;34234;-73
2023/06/23 08:25:16;;;;;;;;;;;;;;;39.47;29.72;100123.34;5412858;32;34133;-75
2023/06/23 08:28:18;;;;;;;;;;;;;;;40.04;28.87;100115.50;5407348;32;34427;-81
2023/06/23 08:31:20;;;;;;;;;;;;;;;40.03;29.12;100124.00;5383993;32;34893;-80
2023/06/23 08:34:22;;;;;;;;;;;;;;;40.34;28.14;100134.25;5408122;32;34355;-73
2023/06/23 08:37:24;;;;;;;;;;;;;;;40.30;28.10;100130.34;5409249;32;34253;-73
2023/06/23 08:40:26;;;;;;;;;;;;;;;39.66;29.16;100112.88;5409179;32;34498;-73
2023/06/23 08:43:28;;;;;;;;;;;;;;;36.86;33.71;100117.81;5402791;32;34107;-79
2023/06/23 08:46:33;;;;;;;;;;;;;;;38.73;30.52;100115.47;5398461;32;34112;-80
2023/06/23 08:49:52;;;;;;;;;;;;;;;38.61;30.91;100112.78;5400512;32;37067;-73
2023/06/23 08:52:58;;;;;;;;;;;;;;;37.75;32.37;100119.44;5413671;32;35367;-80
2023/06/23 08:56:00;;;;;;;;;;;;;;;39.37;29.79;100121.31;5413983;32;34655;-79
2023/06/23 08:59:02;;;;;;;;;;;;;;;40.79;27.67;100121.94;5383567;32;35356;-73
2023/06/23 09:02:05;;;;;;;;;;;;;;;40.81;27.28;100116.97;5414548;32;34266;-73
2023/06/23 09:05:07;;;;;;;;;;;;;;;40.54;27.81;100119.00;5408600;32;34526;-73
2023/06/23 09:08:10;;;;;;;;;;;;;;;38.99;30.12;100125.75;5409478;32;34170;-75
2023/06/23 09:11:12;;;;;;;;;;;;;;;39.29;29.36;100116.28;5398951;32;34994;-80
2023/06/23 09:14:14;;;;;;;;;;;;;;;38.94;30.57;100119.34;5395478;32;33682;-74
2023/06/23 09:17:16;;;;;;;;;;;;;;;39.22;30.00;100124.72;5409815;32;34364;-79
2023/06/23 09:20:18;;;;;;;;;;;;;;;40.06;28.61;100120.75;5410131;32;34743;-73
2023/06/23 09:23:21;;;;;;;;;;;;;;;40.13;28.86;100124.16;5412176;32;35745;-79
2023/06/23 09:26:23;;;;;;;;;;;;;;;42.33;25.27;100128.91;5408123;32;34243;-73
2023/06/23 09:29:26;;;;;;;;;;;;;;;39.12;29.54;100129.22;5405530;32;34314;-73
2023/06/23 09:32:28;;;;;;;;;;;;;;;40.37;28.61;100127.38;5398345;32;35596;-80
2023/06/23 09:35:31;;;;;;;;;;;;;;;39.33;29.54;100131.16;5408973;32;34353;-73
2023/06/23 09:38:35;;;;;;;;;;;;;;;38.43;30.69;100127.59;5398283;32;35154;-79
2023/06/23 09:41:37;;;;;;;;;;;;;;;40.07;28.25;100125.19;5407230;32;35690;-73
2023/06/23 09:44:52;;;;;;;;;;;;;;;41.79;25.85;100129.34;5409686;32;34295;-80
2023/06/23 09:47:54;;;;;;;;;;;;;;;42.22;25.16;100127.25;5407935;32;33611;-80
2023/06/23 09:50:59;;;;;;;;;;;;;;;39.13;29.75;100139.94;5408023;32;34320;-73
2023/06/23 09:54:01;;;;;;;;;;;;;;;41.52;25.77;100137.78;5411561;32;34463;-80
2023/06/23 09:57:07;;;;;;;;;;;;;;;40.50;27.49;100131.63;5407729;32;35380;-81
2023/06/23 10:00:10;;;;;;;;;;;;;;;40.53;27.32;100123.69;5412070;32;34058;-80
2023/06/23 10:03:12;;;;;;;;;;;;;;;41.55;25.66;100138.09;5407771;32;35200;-80
2023/06/23 10:06:21;;;;;;;;;;;;;;;38.24;30.72;100142.59;5410951;32;36348;-74
2023/06/23 10:09:24;;;;;;;;;;;;;;;41.81;25.80;100141.78;5396842;32;35840;-74
2023/06/23 10:12:27;;;;;;;;;;;;;;;41.59;25.99;100135.59;5396703;32;34255;-80
2023/06/23 10:15:29;;;;;;;;;;;;;;;40.35;28.01;100132.31;5411759;32;34266;-73
2023/06/23 10:18:33;;;;;;;;;;;;;;;38.40;31.24;100130.84;5408855;32;35518;-81
2023/06/23 10:21:35;;;;;;;;;;;;;;;38.88;30.44;100123.91;5412108;32;34393;-74
2023/06/23 10:24:37;;;;;;;;;;;;;;;38.20;31.12;100128.56;5397350;32;34221;-79
2023/06/23 10:27:40;;;;;;;;;;;;;;;38.76;30.78;100114.13;5399470;32;35885;-80
2023/06/23 10:30:45;;;;;;;;;;;;;;;38.45;30.83;100124.59;5409057;32;34244;-73
2023/06/23 10:33:47;;;;;;;;;;;;;;;37.97;31.95;100122.34;5409995;32;34243;-81
2023/06/23 10:36:51;;;;;;;;;;;;;;;38.48;30.78;100121.34;5404586;32;34069;-80
2023/06/23 10:39:57;;;;;;;;;;;;;;;38.90;30.52;100120.91;5409561;32;34481;-73
2023/06/23 10:43:01;;;;;;;;;;;;;;;41.33;26.05;100124.47;5398323;32;34479;-73
2023/06/23 10:46:04;;;;;;;;;;;;;;;41.05;26.65;100116.59;5409133;32;34604;-74
2023/06/23 10:49:07;;;;;;;;;;;;;;;39.82;28.36;100117.47;5398001;32;35917;-80
2023/06/23 10:52:10;;;;;;;;;;;;;;;39.50;29.10;100114.59;5413221;32;36119;-79
2023/06/23 10:55:31;;;;;;;;;;;;;;;40.33;27.66;100102.31;5399677;32;34257;-73
2023/06/23 10:58:46;;;;;;;;;;;;;;;42.31;25.04;100101.53;5416513;32;35040;-81
2023/06/23 11:02:00;;;;;;;;;;;;;;;42.97;24.37;100089.59;5412992;32;35650;-73
2023/06/23 11:05:03;;;;;;;;;;;;;;;42.23;25.43;100085.53;5412050;32;34293;-81
2023/06/23 11:08:08;;;;;;;;;;;;;;;40.33;27.60;100094.03;5416710;32;35747;-73
2023/06/23 11:11:10;;;;;;;;;;;;;;;39.84;28.37;100082.28;5412274;32;34657;-74
2023/06/23 11:14:17;;;;;;;;;;;;;;;40.50;28.35;100085.63;5415762;32;33936;-80
2023/06/23 11:17:20;;;;;;;;;;;;;;;40.68;28.26;100078.06;5400197;32;35982;-80
2023/06/23 11:20:22;;;;;;;;;;;;;;;41.13;27.77;100074.75;5416339;32;34610;-73
2023/06/23 11:23:24;;;;;;;;;;;;;;;41.47;27.49;100079.84;5411304;32;35382;-73
2023/06/23 11:26:27;;;;;;;;;;;;;;;39.52;30.22;100084.94;5413300;32;34232;-80
2023/06/23 11:29:31;;;;;;;;;;;;;;;38.61;31.65;100070.75;5415498;32;35327;-73
2023/06/23 11:32:34;;;;;;;;;;;;;;;38.97;31.16;100066.66;5412862;32;35552;-79
2023/06/23 11:35:38;;;;;;;;;;;;;;;38.38;31.67;100071.78;5412243;32;34231;-79
2023/06/23 11:38:41;;;;;;;;;;;;;;;37.99;32.70;100066.16;5408858;32;35698;-72
2023/06/23 11:41:43;;;;;;;;;;;;;;;39.28;30.35;100076.94;5412815;32;35118;-74
2023/06/23 11:44:46;;;;;;;;;;;;;;;37.68;33.03;100070.25;5407505;32;36578;-73
2023/06/23 11:47:49;;;;;;;;;;;;;;;39.04;30.79;100060.97;5406801;32;34415;-79
2023/06/23 11:50:53;;;;;;;;;;;;;;;40.72;28.22;100059.91;5413349;32;34159;-73
2023/06/23 11:53:55;;;;;;;;;;;;;;;41.77;26.76;100043.28;5406987;32;34331;-79
2023/06/23 11:56:57;;;;;;;;;;;;;;;42.21;25.60;100049.09;5413608;32;34306;-72
2023/06/23 11:59:59;;;;;;;;;;;;;;;43.21;24.38;100040.84;5407173;32;34087;-81
2023/06/23 12:03:02;;;;;;;;;;;;;;;41.61;26.43;100040.47;5412028;32;34050;-80
2023/06/23 12:06:04;;;;;;;;;;;;;;;39.95;29.02;100040.00;5411735;32;34642;-72
2023/06/23 12:09:06;;;;;;;;;;;;;;;39.89;29.43;100040.22;5410343;32;35498;-80
2023/06/23 12:12:09;;;;;;;;;;;;;;;40.18;29.25;100027.84;5399868;32;35961;-72
2023/06/23 12:15:20;;;;;;;;;;;;;;;39.65;29.37;100017.72;5396761;32;34228;-79
2023/06/23 12:18:22;;;;;;;;;;;;;;;40.43;28.45;100016.19;5412645;32;34695;-79
2023/06/23 12:21:24;;;;;;;;;;;;;;;39.18;30.57;100021.03;5395849;32;34280;-73
2023/06/23 12:24:27;;;;;;;;;;;;;;;37.75;32.80;100016.09;5394339;32;35748;-73
2023/06/23 12:27:29;;;;;;;;;;;;;;;37.09;33.80;100015.59;5397454;32;34359;-72
2023/06/23 12:30:37;;;;;;;;;;;;;;;38.09;33.04;100007.91;5408268;32;34718;-79
2023/06/23 12:33:40;;;;;;;;;;;;;;;38.16;32.44;100012.12;5409114;32;34251;-72
2023/06/23 12:36:42;;;;;;;;;;;;;;;37.13;34.48;100003.09;5407001;32;35461;-79
2023/06/23 12:39:54;;;;;;;;;;;;;;;36.64;35.21;100012.69;5410627;32;37545;-80
2023/06/23 12:42:57;;;;;;;;;;;;;;;37.50;33.67;100004.66;5391944;32;34312;-73
2023/06/23 12:45:59;;;;;;;;;;;;;;;37.09;34.39;100001.91;5392642;32;34272;-73
2023/06/23 12:49:01;;;;;;;;;;;;;;;36.25;36.32;100012.31;5409676;32;34493;-80
2023/06/23 12:52:03;;;;;;;;;;;;;;;36.73;35.65;100015.91;5408069;32;34636;-80
2023/06/23 12:55:05;;;;;;;;;;;;;;;36.19;36.43;100012.44;5411260;32;34292;-79
2023/06/23 12:58:07;;;;;;;;;;;;;;;35.40;37.99;100009.81;5408699;32;36040;-80
2023/06/23 13:01:09;;;;;;;;;;;;;;;35.90;37.63;100006.78;5410381;32;35379;-81
2023/06/23 13:04:11;;;;;;;;;;;;;;;36.43;36.36;100007.84;5405803;32;34290;-73
2023/06/23 13:07:13;;;;;;;;;;;;;;;35.88;37.55;99995.25;5406082;32;35355;-73
2023/06/23 13:10:15;;;;;;;;;;;;;;;35.68;38.30;100002.91;5410974;32;36443;-74
2023/06/23 13:13:18;;;;;;;;;;;;;;;35.59;38.87;100007.88;5407284;32;33381;-72
2023/06/23 13:16:20;;;;;;;;;;;;;;;34.96;40.00;100020.03;5409739;32;35412;-74
2023/06/23 13:19:22;;;;;;;;;;;;;;;34.65;41.17;100018.25;5408252;32;35444;-72
2023/06/23 13:22:24;;;;;;;;;;;;;;;35.34;40.17;100004.44;5412353;32;34572;-79
2023/06/23 13:25:26;;;;;;;;;;;;;;;35.38;40.01;100005.66;5407375;32;34319;-80
2023/06/23 13:28:28;;;;;;;;;;;;;;;35.11;40.65;100005.16;5405498;32;35590;-80
2023/06/23 13:31:30;;;;;;;;;;;;;;;34.70;41.00;100014.84;5410675;32;35246;-73
2023/06/23 13:34:33;;;;;;;;;;;;;;;34.76;40.93;100005.75;5405713;32;35398;-73
2023/06/23 13:37:37;;;;;;;;;;;;;;;34.93;40.16;100000.56;5398945;32;35976;-79
2023/06/23 13:40:39;;;;;;;;;;;;;;;34.85;40.03;100014.47;5405480;32;34243;-79
2023/06/23 13:43:41;;;;;;;;;;;;;;;35.26;39.52;100006.41;5405339;32;34075;-73
2023/06/23 13:46:43;;;;;;;;;;;;;;;34.63;41.07;100008.62;5406341;32;35559;-78
2023/06/23 13:49:45;;;;;;;;;;;;;;;35.14;39.83;100021.91;5391601;32;34249;-78
2023/06/23 13:52:47;;;;;;;;;;;;;;;35.23;39.64;100027.88;5410761;32;34753;-72
2023/06/23 13:55:49;;;;;;;;;;;;;;;34.55;40.70;100031.59;5401194;32;34380;-78
2023/06/23 13:58:51;;;;;;;;;;;;;;;34.35;40.93;100034.47;5408355;32;34121;-73
2023/06/23 14:01:53;;;;;;;;;;;;;;;35.64;38.24;100023.59;5404622;32;36161;-80
2023/06/23 14:04:55;;;;;;;;;;;;;;;35.22;38.63;100021.59;5409034;32;34406;-80
2023/06/23 14:07:57;;;;;;;;;;;;;;;34.91;38.97;100022.59;5408000;32;34385;-80
2023/06/23 14:10:59;;;;;;;;;;;;;;;34.78;38.86;100033.66;5392067;32;35960;-72
2023/06/23 14:14:01;;;;;;;;;;;;;;;34.48;39.48;100037.09;5409120;32;35785;-73
2023/06/23 14:17:03;;;;;;;;;;;;;;;34.35;39.63;100031.75;5405285;32;34244;-72
2023/06/23 14:20:06;;;;;;;;;;;;;;;34.14;39.61;100026.69;5407999;32;35375;-74
2023/06/23 14:23:08;;;;;;;;;;;;;;;34.28;39.51;100022.78;5406586;32;34336;-72
2023/06/23 14:26:10;;;;;;;;;;;;;;;34.38;38.54;100025.00;5407632;32;34371;-72
2023/06/23 14:29:12;;;;;;;;;;;;;;;34.68;37.92;100027.88;5383085;32;34224;-80
2023/06/23 14:32:14;;;;;;;;;;;;;;;33.45;39.94;100033.00;5405729;32;34208;-73
2023/06/23 14:35:17;;;;;;;;;;;;;;;33.45;40.21;100036.56;5412063;32;34763;-79
2023/06/23 14:38:19;;;;;;;;;;;;;;;33.02;40.66;100033.56;5408116;32;34652;-79
2023/06/23 14:41:21;;;;;;;;;;;;;;;33.14;40.59;100031.84;5396763;32;34257;-79
2023/06/23 14:44:23;;;;;;;;;;;;;;;34.16;38.75;100025.41;5401525;32;34399;-80
2023/06/23 14:47:26;;;;;;;;;;;;;;;33.79;38.88;100026.28;5407620;32;34318;-73
2023/06/23 14:50:28;;;;;;;;;;;;;;;32.84;39.85;100018.72;5409950;32;34361;-73
2023/06/23 14:53:30;;;;;;;;;;;;;;;32.71;39.97;100036.97;5400704;32;34519;-73
2023/06/23 14:56:32;;;;;;;;;;;;;;;33.50;38.52;100019.56;5407863;32;34346;-80
2023/06/23 14:59:34;;;;;;;;;;;;;;;33.30;38.54;100011.47;5407108;32;35526;-73
2023/06/23 15:02:36;;;;;;;;;;;;;;;32.70;39.41;100018.97;5410279;32;34702;-72
2023/06/23 15:05:38;;;;;;;;;;;;;;;33.15;38.72;99989.94;5407004;32;34375;-72
2023/06/23 15:08:40;;;;;;;;;;;;;;;32.34;40.36;100010.25;5406438;32;34318;-81
2023/06/23 15:11:42;;;;;;;;;;;;;;;33.57;37.74;99991.22;5409742;32;34455;-79
2023/06/23 15:14:44;;;;;;;;;;;;;;;33.22;38.50;99987.19;5406757;32;34258;-73
2023/06/23 15:17:46;;;;;;;;;;;;;;;33.04;38.75;99987.88;5411678;32;34925;-72
2023/06/23 15:20:48;;;;;;;;;;;;;;;33.14;38.72;99982.84;5406752;32;34407;-79
2023/06/23 15:23:51;;;;;;;;;;;;;;;32.71;39.20;99972.50;5409235;32;35589;-79
2023/06/23 15:26:53;;;;;;;;;;;;;;;32.45;39.60;99978.00;5366066;32;856999;-79
2023/06/23 15:29:55;;;;;;;;;;;;;;;31.84;40.58;99975.50;5409122;32;34677;-79
2023/06/23 15:32:57;;;;;;;;;;;;;;;32.37;39.65;99980.94;5408540;32;35977;-78
2023/06/23 15:35:59;;;;;;;;;;;;;;;32.36;39.16;99988.28;5408704;32;34603;-81
2023/06/23 15:39:03;;;;;;;;;;;;;;;32.34;39.43;99985.78;5407470;32;34424;-78
2023/06/23 15:42:06;;;;;;;;;;;;;;;32.49;38.83;99985.53;5403060;32;34854;-72